Time;durP1;ratioP1;P1;durP2;ratioP2;P2;SDS_P1;SDS_P2;PMS_P1;PMS_P2;Temp;Humidity;BMP_temperature;BMP_pressure;BME280_temperature;BME280_humidity;BME280_pressure;Samples;Min_cycle;Max_cycle;Signal;HPM_P1;HPM_P2
2021/01/04 00:00:33;;;;;;;4.90;3.33;;;3.80;86.60;;;;;;6252079;23;20000;-82
2021/01/04 00:03:07;;;;;;;5.30;3.87;;;3.80;87.20;;;;;;6252561;22;20000;-82
2021/01/04 00:05:51;;;;;;;6.80;3.90;;;3.80;87.20;;;;;;6252902;23;20007;-82
2021/01/04 00:08:26;;;;;;;6.23;4.10;;;3.80;86.60;;;;;;6260451;23;19996;-79
2021/01/04 00:11:16;;;;;;;6.67;4.40;;;3.80;87.00;;;;;;6260223;23;20030;-81
2021/01/04 00:14:00;;;;;;;5.60;4.00;;;3.80;87.40;;;;;;6254983;22;20000;-81
2021/01/04 00:16:25;;;;;;;5.67;4.20;;;3.80;87.40;;;;;;6220476;23;20004;-80
2021/01/04 00:19:03;;;;;;;5.77;4.23;;;3.80;87.50;;;;;;6220910;23;20493;-82
2021/01/04 00:21:33;;;;;;;6.20;4.40;;;3.70;87.20;;;;;;6220187;22;20004;-81
2021/01/04 00:24:16;;;;;;;7.43;4.50;;;3.80;87.70;;;;;;6247656;23;20005;-81
2021/01/04 00:27:09;;;;;;;6.27;4.27;;;3.80;87.60;;;;;;6247030;23;20007;-81
2021/01/04 00:29:35;;;;;;;6.40;4.50;;;3.80;88.00;;;;;;6247585;23;19996;-81
2021/01/04 00:32:05;;;;;;;6.47;4.50;;;3.80;87.80;;;;;;6247452;22;19997;-81
2021/01/04 00:34:42;;;;;;;6.53;4.53;;;3.80;88.10;;;;;;6247570;23;20127;-82
2021/01/04 00:37:29;;;;;;;6.80;4.43;;;3.70;87.80;;;;;;6246508;23;20008;-81
2021/01/04 00:40:45;;;;;;;6.63;5.03;;;3.70;88.10;;;;;;6245751;23;20012;-82
2021/01/04 00:43:35;;;;;;;8.23;5.53;;;3.70;88.50;;;;;;6124421;23;20001;-81
2021/01/04 00:46:00;;;;;;;8.60;5.77;;;3.70;87.90;;;;;;6225431;23;20008;-82
2021/01/04 00:48:35;;;;;;;7.67;5.63;;;3.70;87.70;;;;;;6220079;23;20465;-82
2021/01/04 00:51:21;;;;;;;8.03;5.83;;;3.70;87.90;;;;;;6219559;23;20454;-81
2021/01/04 00:53:51;;;;;;;7.70;5.80;;;3.70;87.90;;;;;;6247740;22;20010;-82
2021/01/04 00:56:19;;;;;;;8.00;6.22;;;3.70;87.80;;;;;;6247247;23;20035;-81
2021/01/04 00:58:53;;;;;;;9.70;6.47;;;3.70;87.50;;;;;;6247355;23;20322;-81
2021/01/04 01:01:27;;;;;;;8.50;6.47;;;3.70;88.00;;;;;;6219576;23;20231;-82
2021/01/04 01:04:31;;;;;;;8.03;5.93;;;3.70;87.60;;;;;;6219551;23;20324;-82
2021/01/04 01:07:10;;;;;;;9.03;6.37;;;3.70;87.20;;;;;;6246448;23;20004;-82
2021/01/04 01:09:40;;;;;;;8.30;6.40;;;3.70;87.40;;;;;;6245538;23;20000;-81
2021/01/04 01:12:14;;;;;;;9.57;6.80;;;3.70;87.80;;;;;;6219225;23;20000;-82
2021/01/04 01:14:57;;;;;;;8.60;6.33;;;3.70;87.40;;;;;;6219279;23;20000;-82
2021/01/04 01:17:50;;;;;;;8.03;6.00;;;3.70;87.20;;;;;;6219179;23;20012;-81
2021/01/04 01:20:19;;;;;;;8.23;6.10;;;3.70;87.40;;;;;;6246214;23;20374;-81
2021/01/04 01:22:45;;;;;;;9.00;6.50;;;3.70;87.10;;;;;;6245920;22;20061;-81
2021/01/04 01:25:21;;;;;;;8.80;6.77;;;3.70;86.80;;;;;;6246952;23;20319;-81
2021/01/04 01:28:18;;;;;;;8.93;6.53;;;3.70;87.20;;;;;;6219259;23;20000;-82
2021/01/04 01:30:53;;;;;;;8.97;6.63;;;3.70;87.10;;;;;;6216412;23;20004;-81
2021/01/04 01:33:43;;;;;;;9.40;6.67;;;3.70;87.20;;;;;;6246343;22;20035;-81
2021/01/04 01:36:30;;;;;;;9.67;7.10;;;3.70;87.30;;;;;;6246393;23;20050;-81
2021/01/04 01:39:32;;;;;;;9.77;7.27;;;3.70;87.30;;;;;;6245919;23;20043;-81
2021/01/04 01:42:04;;;;;;;9.13;6.87;;;3.70;87.10;;;;;;6245800;22;20453;-81
2021/01/04 01:44:49;;;;;;;8.97;7.17;;;3.70;87.20;;;;;;6218959;23;20011;-82
2021/01/04 01:47:42;;;;;;;9.97;7.17;;;3.70;87.40;;;;;;6246502;23;20005;-82
2021/01/04 01:50:23;;;;;;;9.10;6.63;;;3.70;87.50;;;;;;6215963;23;20000;-82
2021/01/04 01:53:06;;;;;;;9.50;6.77;;;3.70;87.20;;;;;;6222388;23;20011;-82
2021/01/04 01:55:35;;;;;;;10.13;7.20;;;3.70;88.40;;;;;;6222891;23;20008;-81
2021/01/04 01:58:06;;;;;;;11.10;6.73;;;3.70;88.10;;;;;;6222798;23;20400;-81
2021/01/04 02:00:57;;;;;;;9.23;6.50;;;3.70;88.20;;;;;;6222052;23;20238;-82
2021/01/04 02:04:02;;;;;;;9.97;7.23;;;3.70;88.10;;;;;;6249355;22;20320;-82
2021/01/04 02:07:00;;;;;;;9.30;6.83;;;3.60;87.90;;;;;;6249708;23;20463;-82
2021/01/04 02:09:31;;;;;;;9.57;6.87;;;3.70;88.30;;;;;;6249380;23;20308;-81
2021/01/04 02:12:09;;;;;;;11.23;7.50;;;3.70;88.00;;;;;;6223494;23;20243;-82
2021/01/04 02:14:47;;;;;;;9.03;6.60;;;3.60;88.10;;;;;;6251411;23;20089;-83
2021/01/04 02:17:30;;;;;;;10.83;7.53;;;3.60;88.20;;;;;;6254305;23;20054;-83
2021/01/04 02:19:55;;;;;;;9.27;7.03;;;3.60;88.30;;;;;;6253639;23;20003;-82
2021/01/04 02:22:53;;;;;;;10.30;7.20;;;3.60;88.60;;;;;;6254419;22;20004;-82
2021/01/04 02:25:19;;;;;;;10.50;7.43;;;3.60;88.90;;;;;;6233134;23;20004;-82
2021/01/04 02:27:49;;;;;;;9.80;7.03;;;3.60;89.10;;;;;;6227341;23;20004;-82
2021/01/04 02:30:15;;;;;;;10.33;7.83;;;3.60;88.80;;;;;;6254136;23;20330;-82
2021/01/04 02:32:42;;;;;;;9.43;7.43;;;3.60;88.90;;;;;;6252314;22;20005;-82
2021/01/04 02:35:08;;;;;;;10.70;7.37;;;3.60;88.90;;;;;;6251028;23;20052;-82
2021/01/04 02:37:34;;;;;;;10.10;7.40;;;3.60;88.70;;;;;;6250578;23;20035;-82
2021/01/04 02:40:05;;;;;;;10.60;7.30;;;3.60;88.70;;;;;;6222792;23;20011;-81
2021/01/04 02:42:32;;;;;;;11.43;7.73;;;3.50;88.60;;;;;;6250512;22;19996;-82
2021/01/04 02:45:01;;;;;;;11.80;8.10;;;3.50;88.60;;;;;;6251210;23;20004;-82
2021/01/04 02:48:04;;;;;;;16.02;8.02;;;3.50;88.30;;;;;;6223935;23;20004;-82
2021/01/04 02:50:32;;;;;;;10.93;7.87;;;3.50;88.70;;;;;;6223067;23;20051;-82
2021/01/04 02:53:35;;;;;;;10.03;7.50;;;3.50;88.40;;;;;;6250871;22;20053;-82
2021/01/04 02:56:40;;;;;;;10.67;7.90;;;3.50;88.50;;;;;;6251177;23;20230;-82
2021/01/04 02:59:36;;;;;;;11.33;7.93;;;3.50;88.80;;;;;;6250342;23;20339;-82
2021/01/04 03:02:14;;;;;;;10.00;7.70;;;3.60;88.30;;;;;;6249781;22;20000;-82
2021/01/04 03:04:41;;;;;;;10.70;8.03;;;3.60;88.30;;;;;;6249521;23;20327;-82
2021/01/04 03:07:13;;;;;;;12.17;8.43;;;3.50;88.50;;;;;;6250344;23;20000;-82
2021/01/04 03:09:48;;;;;;;11.27;8.43;;;3.50;88.10;;;;;;6249532;23;20019;-82
2021/01/04 03:12:18;;;;;;;12.67;8.57;;;3.50;88.10;;;;;;6222953;23;20011;-81
2021/01/04 03:15:14;;;;;;;11.27;8.30;;;3.50;88.20;;;;;;6222605;23;20000;-82
2021/01/04 03:18:20;;;;;;;9.93;7.80;;;3.50;88.20;;;;;;6248788;23;20008;-81
2021/01/04 03:20:46;;;;;;;11.90;8.80;;;3.50;87.40;;;;;;6247281;23;20073;-81
2021/01/04 03:23:13;;;;;;;12.03;8.20;;;3.60;87.70;;;;;;6220918;23;20386;-81
2021/01/04 03:25:48;;;;;;;10.70;7.50;;;3.60;88.10;;;;;;6248171;23;20004;-81
2021/01/04 03:28:29;;;;;;;11.40;8.07;;;3.50;87.30;;;;;;6247840;23;20042;-81
2021/01/04 03:30:56;;;;;;;11.03;8.60;;;3.50;87.40;;;;;;6220661;23;20462;-81
2021/01/04 03:33:22;;;;;;;12.63;8.50;;;3.60;87.60;;;;;;6247812;22;20000;-81
2021/01/04 03:35:49;;;;;;;13.03;9.10;;;3.50;87.70;;;;;;6221238;23;20004;-82
2021/01/04 03:38:15;;;;;;;12.63;8.87;;;3.50;87.90;;;;;;6221590;23;20064;-82
2021/01/04 03:40:41;;;;;;;13.43;9.20;;;3.50;88.10;;;;;;6220517;23;20015;-81
2021/01/04 03:43:07;;;;;;;14.97;9.73;;;3.50;88.90;;;;;;6248071;22;20000;-81
2021/01/04 03:45:32;;;;;;;11.97;8.80;;;3.40;88.50;;;;;;6222156;23;20008;-82
2021/01/04 03:47:58;;;;;;;13.43;9.00;;;3.40;88.80;;;;;;6248167;23;20004;-81
2021/01/04 03:50:24;;;;;;;12.50;8.57;;;3.40;88.80;;;;;;6220751;23;20346;-82
2021/01/04 03:52:50;;;;;;;12.40;8.73;;;3.40;88.80;;;;;;6249082;22;20502;-83
2021/01/04 03:55:16;;;;;;;12.73;8.70;;;3.40;89.10;;;;;;6251613;23;20489;-83
2021/01/04 03:57:42;;;;;;;13.70;8.63;;;3.40;89.20;;;;;;6249868;23;20004;-83
2021/01/04 04:00:09;;;;;;;13.50;8.67;;;3.30;89.30;;;;;;6253042;23;20010;-83
2021/01/04 04:02:35;;;;;;;14.20;8.63;;;3.30;89.20;;;;;;6234176;23;20004;-83
2021/01/04 04:05:03;;;;;;;13.13;9.03;;;3.40;89.60;;;;;;6258388;23;20305;-83
2021/01/04 04:07:29;;;;;;;15.60;8.83;;;3.40;89.50;;;;;;6258392;23;20068;-82
2021/01/04 04:09:54;;;;;;;13.50;8.87;;;3.40;89.20;;;;;;6255749;23;19996;-82
2021/01/04 04:12:20;;;;;;;17.30;11.00;;;3.40;89.50;;;;;;6251199;22;20058;-81
2021/01/04 04:14:51;;;;;;;17.63;10.07;;;3.30;89.40;;;;;;6246017;23;20004;-81
2021/01/04 04:17:18;;;;;;;14.73;10.07;;;3.40;89.60;;;;;;6246929;23;20004;-81
2021/01/04 04:19:49;;;;;;;13.33;9.17;;;3.40;89.20;;;;;;6246013;23;20008;-82
2021/01/04 04:22:16;;;;;;;14.50;8.83;;;3.30;89.40;;;;;;6246435;22;20012;-82
2021/01/04 04:24:45;;;;;;;16.33;9.70;;;3.30;89.40;;;;;;6246840;23;20000;-81
2021/01/04 04:27:15;;;;;;;12.63;8.83;;;3.30;89.40;;;;;;6248078;23;20039;-82
2021/01/04 04:29:44;;;;;;;19.80;9.73;;;3.30;89.60;;;;;;6220593;23;20003;-81
2021/01/04 04:32:10;;;;;;;12.60;9.00;;;3.30;89.60;;;;;;6219282;23;20479;-80
2021/01/04 04:34:36;;;;;;;15.30;9.93;;;3.30;89.50;;;;;;6218932;23;20052;-81
2021/01/04 04:37:03;;;;;;;16.43;10.17;;;3.30;89.40;;;;;;6245920;23;20000;-81
2021/01/04 04:39:29;;;;;;;14.07;9.63;;;3.30;89.40;;;;;;6245441;23;20000;-81
2021/01/04 04:41:55;;;;;;;15.07;10.70;;;3.20;89.40;;;;;;6245728;22;20004;-80
2021/01/04 04:44:36;;;;;;;15.73;10.40;;;3.20;89.80;;;;;;6245897;23;20427;-80
2021/01/04 04:47:08;;;;;;;17.10;11.80;;;3.20;89.80;;;;;;6245847;23;20000;-80
2021/01/04 04:49:33;;;;;;;18.67;11.83;;;3.20;90.00;;;;;;6245723;23;20331;-80
2021/01/04 04:52:20;;;;;;;17.20;10.67;;;3.20;89.80;;;;;;6244471;23;20120;-80
2021/01/04 04:55:07;;;;;;;17.80;11.37;;;3.30;90.00;;;;;;6246320;23;19996;-81
2021/01/04 04:57:39;;;;;;;18.00;11.30;;;3.30;90.00;;;;;;6244363;22;20004;-80
2021/01/04 05:00:18;;;;;;;16.87;10.53;;;3.20;90.00;;;;;;6243796;23;20012;-80
2021/01/04 05:03:10;;;;;;;14.63;10.57;;;3.30;90.30;;;;;;6244411;23;20012;-80
2021/01/04 05:05:45;;;;;;;15.80;9.80;;;3.30;89.90;;;;;;6246061;23;20004;-80
2021/01/04 05:08:39;;;;;;;15.07;9.87;;;3.40;90.10;;;;;;6245707;23;20000;-81
2021/01/04 05:11:06;;;;;;;13.77;9.43;;;3.30;89.80;;;;;;6245317;23;20427;-80
2021/01/04 05:13:41;;;;;;;13.13;8.97;;;3.30;89.70;;;;;;6246088;22;20006;-80
2021/01/04 05:16:31;;;;;;;13.77;8.93;;;3.40;89.80;;;;;;6245701;23;20000;-80
2021/01/04 05:19:09;;;;;;;13.37;9.00;;;3.40;89.80;;;;;;6244608;23;20033;-80
2021/01/04 05:22:12;;;;;;;11.07;8.33;;;3.30;89.80;;;;;;6245330;22;20055;-80
2021/01/04 05:24:49;;;;;;;12.37;8.67;;;3.40;89.70;;;;;;6219859;23;20087;-81
2021/01/04 05:27:45;;;;;;;11.47;8.43;;;3.40;89.60;;;;;;6246808;23;20316;-81
2021/01/04 05:30:16;;;;;;;10.83;8.00;;;3.40;89.90;;;;;;6246472;23;20339;-81
2021/01/04 05:32:54;;;;;;;14.57;8.60;;;3.40;90.00;;;;;;6247194;22;20419;-82
2021/01/04 05:35:20;;;;;;;16.37;8.70;;;3.40;90.10;;;;;;6246409;23;20000;-81
2021/01/04 05:37:55;;;;;;;13.03;8.27;;;3.40;89.90;;;;;;6246743;23;20392;-80
2021/01/04 05:40:38;;;;;;;11.53;8.13;;;3.40;89.50;;;;;;6219090;23;20008;-82
2021/01/04 05:43:16;;;;;;;11.80;7.80;;;3.30;89.90;;;;;;6246520;22;20389;-81
2021/01/04 05:46:13;;;;;;;10.93;8.50;;;3.40;89.80;;;;;;6247198;23;20000;-81
2021/01/04 05:48:47;;;;;;;14.13;9.73;;;3.40;89.60;;;;;;6247297;23;20088;-81
2021/01/04 05:51:12;;;;;;;11.47;8.40;;;3.40;89.60;;;;;;6246960;23;20023;-81
2021/01/04 05:53:39;;;;;;;12.17;8.73;;;3.40;89.40;;;;;;6246316;22;20003;-81
2021/01/04 05:56:05;;;;;;;11.00;8.43;;;3.40;89.20;;;;;;6220473;23;20339;-82
2021/01/04 05:58:34;;;;;;;11.47;8.30;;;3.40;89.00;;;;;;6248451;23;20000;-81
2021/01/04 06:01:21;;;;;;;10.82;8.20;;;3.40;89.60;;;;;;6220403;23;20004;-81
2021/01/04 06:04:00;;;;;;;11.80;8.67;;;3.40;89.70;;;;;;6248185;22;20016;-80
2021/01/04 06:06:31;;;;;;;12.52;8.63;;;3.30;89.40;;;;;;6248772;23;20390;-81
2021/01/04 06:09:15;;;;;;;12.20;9.10;;;3.30;89.20;;;;;;6220788;23;20004;-81
2021/01/04 06:12:20;;;;;;;10.27;8.10;;;3.30;89.40;;;;;;6247213;22;20327;-80
2021/01/04 06:14:57;;;;;;;11.37;8.60;;;3.40;89.20;;;;;;6245973;23;20390;-80
2021/01/04 06:17:31;;;;;;;11.90;8.60;;;3.40;88.90;;;;;;6246685;23;20015;-79
2021/01/04 06:20:28;;;;;;;11.07;7.73;;;3.40;89.20;;;;;;6245962;23;20584;-80
2021/01/04 06:22:54;;;;;;;11.77;7.57;;;3.40;89.00;;;;;;6173067;23;20024;-79
2021/01/04 06:25:19;;;;;;;11.57;8.00;;;3.40;88.90;;;;;;6246578;23;20000;-80
2021/01/04 06:27:48;;;;;;;12.70;8.60;;;3.40;88.50;;;;;;6247313;23;20014;-80
2021/01/04 06:30:29;;;;;;;12.57;8.73;;;3.30;89.00;;;;;;6246588;23;20051;-80
2021/01/04 06:33:22;;;;;;;10.67;8.13;;;3.30;89.10;;;;;;6247323;22;19997;-80
2021/01/04 06:35:47;;;;;;;12.47;8.33;;;3.30;89.00;;;;;;6247064;23;20433;-80
2021/01/04 06:38:24;;;;;;;11.30;8.40;;;3.30;89.40;;;;;;6249253;23;20008;-81
2021/01/04 06:40:50;;;;;;;12.70;8.53;;;3.30;89.30;;;;;;6249143;23;20083;-79
2021/01/04 06:43:30;;;;;;;11.20;8.33;;;3.40;89.20;;;;;;6248992;22;20006;-80
2021/01/04 06:46:20;;;;;;;;;;;3.40;89.70;;;;;;6222765;23;20453;-81
2021/01/04 06:49:07;;;;;;;11.83;8.83;;;3.30;89.80;;;;;;6221988;23;19903;-80
2021/01/04 06:51:51;;;;;;;11.77;8.63;;;3.40;89.40;;;;;;6221910;22;20009;-80
2021/01/04 06:54:42;;;;;;;13.60;8.87;;;3.40;89.40;;;;;;6222787;23;20004;-81
2021/01/04 06:57:39;;;;;;;12.90;8.83;;;3.40;89.50;;;;;;6251905;23;20000;-81
2021/01/04 07:00:25;;;;;;;12.00;9.30;;;3.30;89.60;;;;;;6249965;23;20008;-80
2021/01/04 07:03:00;;;;;;;11.63;8.47;;;3.40;89.60;;;;;;6250372;22;20079;-81
2021/01/04 07:05:47;;;;;;;12.37;8.50;;;3.40;89.60;;;;;;6223744;23;20008;-81
2021/01/04 07:08:31;;;;;;;12.30;8.63;;;3.40;89.80;;;;;;6223340;23;20004;-81
2021/01/04 07:11:08;;;;;;;11.13;8.17;;;3.40;89.60;;;;;;6249787;23;20000;-81
2021/01/04 07:13:50;;;;;;;11.83;9.00;;;3.40;89.20;;;;;;6250383;22;20000;-80
2021/01/04 07:16:16;;;;;;;12.37;8.87;;;3.40;89.10;;;;;;6250908;23;19997;-81
2021/01/04 07:19:02;;;;;;;12.03;8.50;;;3.40;89.10;;;;;;6251569;23;20007;-81
2021/01/04 07:22:06;;;;;;;12.30;8.80;;;3.40;89.10;;;;;;6223208;23;20427;-81
2021/01/04 07:25:06;;;;;;;13.47;9.23;;;3.50;89.00;;;;;;6250880;23;20019;-81
2021/01/04 07:27:49;;;;;;;12.90;8.80;;;3.40;88.50;;;;;;6251164;23;20000;-81
2021/01/04 07:30:26;;;;;;;14.60;9.73;;;3.40;88.70;;;;;;6223355;23;20420;-81
2021/01/04 07:33:09;;;;;;;13.23;9.83;;;3.40;88.50;;;;;;6250620;22;20000;-81
2021/01/04 07:35:52;;;;;;;15.53;9.57;;;3.50;88.60;;;;;;6251233;23;20059;-81
2021/01/04 07:38:39;;;;;;;13.43;9.27;;;3.40;88.10;;;;;;6224258;23;20138;-81
2021/01/04 07:41:36;;;;;;;14.67;10.10;;;3.50;88.00;;;;;;6251240;23;20008;-81
2021/01/04 07:44:39;;;;;;;12.93;9.10;;;3.50;87.90;;;;;;6216040;23;20008;-81
2021/01/04 07:47:24;;;;;;;13.67;9.50;;;3.50;88.00;;;;;;6224207;23;20010;-80
2021/01/04 07:50:22;;;;;;;13.87;9.70;;;3.50;88.10;;;;;;6224739;23;20004;-80
2021/01/04 07:53:06;;;;;;;15.97;10.33;;;3.50;87.90;;;;;;6251424;22;20073;-81
2021/01/04 07:55:37;;;;;;;15.57;9.70;;;3.50;88.10;;;;;;6251042;23;20321;-81
2021/01/04 07:58:06;;;;;;;12.63;9.53;;;3.50;87.80;;;;;;6255912;23;20026;-80
2021/01/04 08:00:49;;;;;;;14.65;10.00;;;3.50;88.00;;;;;;6267735;23;19992;-80
2021/01/04 08:03:24;;;;;;;13.07;9.83;;;3.50;87.90;;;;;;6268160;22;20457;-80
2021/01/04 08:06:22;;;;;;;13.70;9.03;;;3.50;87.90;;;;;;6251565;23;20000;-80
2021/01/04 08:09:30;;;;;;;12.80;9.20;;;3.50;87.60;;;;;;6247754;23;20004;-81
2021/01/04 08:12:23;;;;;;;12.63;8.40;;;3.50;88.00;;;;;;6248895;22;20439;-81
2021/01/04 08:15:10;;;;;;;13.10;9.20;;;3.50;87.90;;;;;;6250008;23;19996;-80
2021/01/04 08:17:46;;;;;;;13.63;8.90;;;3.50;87.40;;;;;;6248980;23;20051;-81
2021/01/04 08:20:12;;;;;;;15.60;9.07;;;3.50;87.70;;;;;;6247025;23;20004;-80
2021/01/04 08:23:12;;;;;;;14.20;9.63;;;3.40;87.90;;;;;;6247451;22;20012;-80
2021/01/04 08:25:37;;;;;;;;;;;3.40;87.80;;;;;;6221649;23;20004;-80
2021/01/04 08:28:42;;;;;;;14.47;9.13;;;3.40;88.20;;;;;;6247309;23;20330;-81
2021/01/04 08:31:32;;;;;;;16.13;9.50;;;3.40;87.30;;;;;;6219232;23;20007;-80
2021/01/04 08:34:00;;;;;;;12.87;8.73;;;3.40;87.80;;;;;;6248114;23;19996;-81
2021/01/04 08:36:45;;;;;;;12.60;9.07;;;3.40;87.90;;;;;;6220515;23;20083;-81
2021/01/04 08:39:22;;;;;;;12.90;9.03;;;3.40;87.50;;;;;;6248376;23;20327;-81
2021/01/04 08:42:10;;;;;;;15.53;9.63;;;3.40;87.80;;;;;;6251105;22;19996;-81
2021/01/04 08:44:37;;;;;;;14.80;9.57;;;3.40;88.00;;;;;;6231920;23;20027;-80
2021/01/04 08:47:25;;;;;;;14.53;9.10;;;3.40;87.60;;;;;;6251240;23;20028;-81
2021/01/04 08:50:08;;;;;;;14.27;9.50;;;3.40;87.70;;;;;;6249349;23;20078;-81
2021/01/04 08:52:47;;;;;;;15.63;10.40;;;3.40;87.80;;;;;;6250259;22;20004;-81
2021/01/04 08:55:29;;;;;;;16.40;10.73;;;3.40;87.50;;;;;;6250413;23;20000;-80
2021/01/04 08:57:55;;;;;;;15.63;10.37;;;3.40;87.10;;;;;;6249634;23;20022;-80
2021/01/04 09:00:25;;;;;;;17.30;10.77;;;3.50;87.30;;;;;;6249164;23;20000;-81
2021/01/04 09:02:53;;;;;;;16.77;10.63;;;3.50;87.20;;;;;;6250418;22;20004;-81
2021/01/04 09:05:35;;;;;;;15.43;10.10;;;3.50;87.30;;;;;;6250796;23;20424;-81
2021/01/04 09:08:03;;;;;;;17.20;10.90;;;3.50;87.00;;;;;;6251484;23;20243;-81
2021/01/04 09:10:40;;;;;;;14.30;9.67;;;3.40;86.90;;;;;;6249109;23;20004;-80
2021/01/04 09:13:29;;;;;;;15.83;10.63;;;3.50;87.00;;;;;;6221552;23;20008;-81
2021/01/04 09:15:56;;;;;;;14.95;9.90;;;3.50;87.20;;;;;;6250619;23;19996;-81
2021/01/04 09:18:36;;;;;;;15.77;10.37;;;3.40;87.50;;;;;;6248446;23;20088;-81
2021/01/04 09:21:07;;;;;;;14.47;9.70;;;3.50;87.20;;;;;;6247348;23;20057;-81
2021/01/04 09:23:40;;;;;;;13.80;9.50;;;3.40;87.10;;;;;;6248064;22;20019;-80
2021/01/04 09:26:25;;;;;;;15.23;10.03;;;3.50;87.30;;;;;;6248325;23;20079;-81
2021/01/04 09:29:11;;;;;;;14.57;9.80;;;3.50;87.20;;;;;;6246412;23;20031;-81
2021/01/04 09:31:47;;;;;;;12.87;8.80;;;3.50;86.70;;;;;;6246172;22;20000;-81
2021/01/04 09:34:15;;;;;;;14.90;9.07;;;3.50;86.60;;;;;;6246644;23;19992;-81
2021/01/04 09:36:41;;;;;;;14.50;9.27;;;3.50;86.60;;;;;;6247201;23;19996;-81
2021/01/04 09:39:09;;;;;;;13.27;9.07;;;3.50;86.70;;;;;;6246921;23;20004;-81
2021/01/04 09:41:36;;;;;;;13.77;9.50;;;3.50;86.80;;;;;;6220315;22;20005;-80
2021/01/04 09:44:11;;;;;;;13.13;9.20;;;3.50;86.50;;;;;;6246936;23;20006;-81
2021/01/04 09:46:51;;;;;;;14.77;9.40;;;3.50;86.60;;;;;;6220138;23;20005;-81
2021/01/04 09:49:23;;;;;;;14.23;9.67;;;3.60;86.60;;;;;;6219199;23;20005;-81
2021/01/04 09:52:20;;;;;;;13.47;9.00;;;3.60;86.40;;;;;;6247122;22;20442;-81
2021/01/04 09:54:51;;;;;;;13.83;8.97;;;3.60;86.50;;;;;;6237368;23;20071;-81
2021/01/04 09:57:21;;;;;;;16.70;9.87;;;3.60;86.40;;;;;;6248072;23;20004;-80
2021/01/04 09:59:47;;;;;;;14.27;9.20;;;3.60;86.10;;;;;;6247472;23;20027;-81
2021/01/04 10:02:31;;;;;;;15.07;9.67;;;3.60;86.10;;;;;;6221510;23;20004;-81
2021/01/04 10:05:31;;;;;;;14.90;9.17;;;3.60;86.40;;;;;;6248715;23;20024;-81
2021/01/04 10:07:57;;;;;;;14.83;9.77;;;3.60;86.40;;;;;;6200334;23;20011;-80
2021/01/04 10:10:23;;;;;;;13.67;8.97;;;3.60;86.10;;;;;;6247815;23;20000;-80
2021/01/04 10:12:48;;;;;;;13.67;9.23;;;3.60;86.30;;;;;;6253299;22;20004;-81
2021/01/04 10:15:18;;;;;;;14.00;9.23;;;3.60;86.50;;;;;;6222277;23;20031;-80
2021/01/04 10:18:01;;;;;;;13.53;9.17;;;3.60;86.10;;;;;;6249380;23;20004;-81
2021/01/04 10:20:42;;;;;;;14.77;9.30;;;3.60;86.60;;;;;;6250343;23;20451;-81
2021/01/04 10:23:13;;;;;;;13.30;9.07;;;3.60;86.40;;;;;;6251523;22;20370;-81
2021/01/04 10:25:52;;;;;;;14.03;9.33;;;3.60;86.30;;;;;;6251471;23;20117;-80
2021/01/04 10:28:18;;;;;;;12.97;8.87;;;3.60;86.50;;;;;;6221944;23;20030;-81
2021/01/04 10:30:44;;;;;;;14.77;8.73;;;3.60;86.50;;;;;;6249308;23;20000;-81
2021/01/04 10:33:25;;;;;;;15.73;9.20;;;3.50;86.80;;;;;;6248979;22;20011;-81
2021/01/04 10:36:08;;;;;;;12.73;8.10;;;3.60;86.70;;;;;;6224742;23;20051;-81
2021/01/04 10:38:36;;;;;;;13.07;7.93;;;3.60;86.30;;;;;;6251903;23;20052;-81
2021/01/04 10:41:10;;;;;;;12.47;8.20;;;3.60;86.60;;;;;;6224075;23;20491;-81
2021/01/04 10:43:37;;;;;;;12.47;7.83;;;3.60;86.70;;;;;;6224909;23;20078;-81
2021/01/04 10:46:15;;;;;;;12.80;8.17;;;3.60;86.20;;;;;;6251896;23;20000;-81
2021/01/04 10:48:55;;;;;;;12.60;8.27;;;3.60;86.30;;;;;;6252456;23;20030;-81
2021/01/04 10:51:23;;;;;;;13.63;8.63;;;3.70;86.50;;;;;;6252212;23;20088;-81
2021/01/04 10:53:49;;;;;;;14.23;8.80;;;3.70;86.70;;;;;;6251269;22;20488;-81
2021/01/04 10:56:14;;;;;;;12.03;8.50;;;3.70;86.70;;;;;;6224682;23;20016;-82
2021/01/04 10:58:48;;;;;;;11.77;8.10;;;3.60;86.70;;;;;;6251954;23;20004;-81
2021/01/04 11:01:24;;;;;;;12.53;8.93;;;3.70;86.50;;;;;;6251123;23;20098;-81
2021/01/04 11:03:53;;;;;;;14.47;8.70;;;3.60;86.50;;;;;;6249932;22;20335;-82
2021/01/04 11:06:24;;;;;;;13.33;8.80;;;3.60;86.70;;;;;;6249160;23;20000;-81
2021/01/04 11:08:50;;;;;;;14.03;9.37;;;3.70;86.70;;;;;;6221692;23;20012;-82
2021/01/04 11:11:39;;;;;;;13.03;8.97;;;3.60;86.30;;;;;;6249520;23;20457;-81
2021/01/04 11:14:11;;;;;;;;;;;3.70;86.90;;;;;;6223831;23;20335;-81
2021/01/04 11:17:06;;;;;;;14.63;9.03;;;3.70;86.80;;;;;;6251503;23;19899;-81
2021/01/04 11:19:34;;;;;;;14.33;9.77;;;3.70;87.00;;;;;;6252056;23;20026;-81
2021/01/04 11:22:17;;;;;;;16.23;9.97;;;3.70;86.70;;;;;;6251250;22;20004;-82
2021/01/04 11:24:43;;;;;;;16.53;11.07;;;3.70;86.20;;;;;;6250788;23;20004;-80
2021/01/04 11:27:09;;;;;;;19.13;11.50;;;3.70;86.40;;;;;;6249178;23;20004;-80
2021/01/04 11:29:38;;;;;;;18.73;11.43;;;3.70;86.80;;;;;;6248962;23;20023;-80
2021/01/04 11:32:05;;;;;;;18.38;11.23;;;3.70;86.60;;;;;;6251441;22;20008;-81
2021/01/04 11:34:30;;;;;;;18.00;11.47;;;3.70;86.60;;;;;;6251623;22;19997;-80
2021/01/04 11:36:56;;;;;;;20.10;12.30;;;3.70;86.30;;;;;;6252312;23;20003;-79
2021/01/04 11:39:22;;;;;;;20.63;12.23;;;3.70;86.90;;;;;;6250902;22;20027;-81
2021/01/04 11:41:48;;;;;;;18.60;11.40;;;3.70;86.40;;;;;;6252669;22;20000;-81
2021/01/04 11:44:13;;;;;;;19.43;11.77;;;3.70;86.10;;;;;;6250200;23;20014;-81
2021/01/04 11:46:39;;;;;;;22.50;12.30;;;3.70;85.70;;;;;;6253645;23;20447;-80
2021/01/04 11:49:05;;;;;;;20.13;11.83;;;3.70;86.20;;;;;;6248317;23;20054;-80
2021/01/04 11:51:31;;;;;;;18.80;12.27;;;3.80;86.50;;;;;;6248512;22;20083;-80
2021/01/04 11:53:57;;;;;;;18.93;11.73;;;3.80;86.60;;;;;;6248314;23;20071;-80
2021/01/04 11:56:24;;;;;;;19.07;11.67;;;3.80;86.50;;;;;;6220664;23;20050;-80
2021/01/04 11:58:50;;;;;;;20.90;12.03;;;3.80;85.80;;;;;;6249178;23;20039;-80
2021/01/04 12:01:16;;;;;;;18.73;11.33;;;3.80;86.80;;;;;;6249368;23;20008;-80
2021/01/04 12:03:43;;;;;;;19.93;12.10;;;3.80;85.70;;;;;;6248552;22;20027;-80
2021/01/04 12:06:09;;;;;;;19.37;11.40;;;3.80;86.20;;;;;;6248676;23;20001;-80
2021/01/04 12:08:35;;;;;;;19.77;12.27;;;3.80;85.60;;;;;;6221104;23;20007;-80
2021/01/04 12:11:01;;;;;;;20.60;11.77;;;3.80;85.40;;;;;;6248366;23;20000;-80
2021/01/04 12:13:27;;;;;;;18.90;11.87;;;3.90;85.70;;;;;;6248806;22;20066;-80
2021/01/04 12:15:53;;;;;;;20.00;11.83;;;3.90;85.20;;;;;;6222928;23;20000;-81
2021/01/04 12:18:19;;;;;;;19.87;12.07;;;3.90;84.90;;;;;;6250953;22;20045;-80
2021/01/04 12:20:46;;;;;;;19.60;12.03;;;4.00;85.20;;;;;;6252536;23;20024;-82
2021/01/04 12:23:11;;;;;;;21.03;12.20;;;4.00;85.70;;;;;;6251897;22;20012;-82
2021/01/04 12:25:37;;;;;;;20.80;12.00;;;4.00;85.70;;;;;;6251548;23;20516;-81
2021/01/04 12:28:03;;;;;;;19.97;12.37;;;4.00;85.50;;;;;;6253432;23;20000;-81
2021/01/04 12:30:29;;;;;;;19.80;12.27;;;3.90;85.50;;;;;;6251448;23;20003;-81
2021/01/04 12:32:55;;;;;;;18.87;12.30;;;4.00;85.90;;;;;;6252134;22;20000;-81
2021/01/04 12:35:21;;;;;;;16.90;11.10;;;4.00;85.90;;;;;;6249832;22;20007;-82
2021/01/04 12:37:47;;;;;;;17.37;11.17;;;4.00;86.00;;;;;;6250698;23;20063;-81
2021/01/04 12:40:14;;;;;;;16.53;10.73;;;4.00;86.70;;;;;;6250013;23;20004;-82
2021/01/04 12:42:41;;;;;;;17.37;10.80;;;4.00;86.10;;;;;;6251432;22;20027;-82
2021/01/04 12:45:08;;;;;;;17.87;11.60;;;4.00;86.00;;;;;;6224025;23;20008;-81
2021/01/04 12:47:34;;;;;;;18.57;11.80;;;4.00;85.90;;;;;;6251665;23;20004;-82
2021/01/04 12:50:00;;;;;;;16.27;11.20;;;4.00;86.10;;;;;;6251053;23;20003;-82
2021/01/04 12:52:26;;;;;;;17.70;11.03;;;4.00;86.30;;;;;;6251761;22;19996;-81
2021/01/04 12:54:51;;;;;;;18.40;10.93;;;3.90;85.80;;;;;;6250272;23;20000;-81
2021/01/04 12:57:18;;;;;;;16.90;11.40;;;3.90;86.00;;;;;;6247560;23;20027;-81
2021/01/04 12:59:43;;;;;;;19.00;11.23;;;3.90;86.00;;;;;;6245916;23;20010;-82
2021/01/04 13:02:10;;;;;;;15.00;10.17;;;3.90;85.70;;;;;;6220573;23;20007;-81
2021/01/04 13:04:41;;;;;;;19.20;11.40;;;3.90;85.60;;;;;;6247141;23;20047;-81
2021/01/04 13:07:07;;;;;;;16.03;10.67;;;3.90;85.50;;;;;;6246102;23;20004;-81
2021/01/04 13:09:33;;;;;;;18.97;11.57;;;4.00;85.50;;;;;;6247107;23;20050;-81
2021/01/04 13:12:00;;;;;;;16.83;11.00;;;4.00;85.20;;;;;;6249815;22;20004;-82
2021/01/04 13:14:25;;;;;;;19.17;12.17;;;4.00;84.80;;;;;;6222298;23;20016;-81
2021/01/04 13:16:51;;;;;;;19.80;11.33;;;3.90;84.90;;;;;;6247657;23;20489;-81
2021/01/04 13:19:17;;;;;;;19.57;11.33;;;4.00;85.20;;;;;;6247817;23;20493;-81
2021/01/04 13:21:44;;;;;;;18.23;12.17;;;4.00;85.40;;;;;;6247846;22;20012;-81
2021/01/04 13:24:13;;;;;;;17.83;11.03;;;4.00;85.40;;;;;;6248158;23;20016;-81
2021/01/04 13:26:47;;;;;;;15.00;9.73;;;4.00;85.10;;;;;;6248114;23;20059;-81
2021/01/04 13:29:14;;;;;;;16.67;10.37;;;4.00;85.10;;;;;;6248206;23;20009;-82
2021/01/04 13:31:40;;;;;;;17.97;11.27;;;4.00;84.90;;;;;;6248538;22;20427;-81